createdAt,value
2022-08-08T00:01:16.991Z,9.48
2022-08-08T00:03:56.025Z,11.98
2022-08-08T00:06:39.290Z,9.55
2022-08-08T00:09:15.938Z,10.05
2022-08-08T00:12:09.314Z,7.88
2022-08-08T00:14:59.846Z,9.98
2022-08-08T00:18:02.200Z,8.50
2022-08-08T00:20:37.394Z,8.18
2022-08-08T00:23:09.286Z,7.57
2022-08-08T00:25:46.616Z,7.70
2022-08-08T00:28:35.211Z,8.40
2022-08-08T00:32:21.292Z,8.82
2022-08-08T00:34:20.485Z,8.52
2022-08-08T00:37:03.588Z,8.15
2022-08-08T00:41:06.864Z,8.05
2022-08-08T00:43:06.030Z,8.95
2022-08-08T00:46:02.226Z,8.48
2022-08-08T00:49:03.548Z,8.45
2022-08-08T00:52:05.494Z,8.40
2022-08-08T00:55:17.920Z,9.45
2022-08-08T00:58:30.682Z,9.50
2022-08-08T01:01:15.916Z,10.38
2022-08-08T01:04:36.788Z,9.88
2022-08-08T01:07:57.449Z,10.60
2022-08-08T01:11:09.715Z,11.07
2022-08-08T01:14:13.643Z,9.95
2022-08-08T01:17:52.081Z,10.90
2022-08-08T01:20:44.297Z,11.00
2022-08-08T01:24:05.509Z,10.48
2022-08-08T01:26:51.990Z,10.32
2022-08-08T01:30:03.317Z,10.88
2022-08-08T01:33:24.009Z,10.93
2022-08-08T01:36:37.728Z,10.82
2022-08-08T01:39:23.380Z,10.77
2022-08-08T01:41:59.027Z,10.98
2022-08-08T01:44:43.702Z,11.10
2022-08-08T01:48:03.653Z,11.55
2022-08-08T01:50:35.841Z,11.07
2022-08-08T01:54:33.535Z,11.02
2022-08-08T01:56:28.503Z,11.43
2022-08-08T01:59:19.990Z,10.93
2022-08-08T02:02:09.320Z,11.23
2022-08-08T02:04:50.948Z,10.68
2022-08-08T02:07:26.506Z,10.65
2022-08-08T02:10:37.168Z,10.98
2022-08-08T02:13:53.924Z,10.45
2022-08-08T02:16:20.927Z,11.45
2022-08-08T02:18:58.733Z,10.18
2022-08-08T02:21:50.716Z,10.18
2022-08-08T02:24:22.861Z,10.10
2022-08-08T02:27:01.251Z,9.93
2022-08-08T02:29:53.150Z,10.50
2022-08-08T02:33:00.431Z,10.95
2022-08-08T02:36:04.598Z,9.45
2022-08-08T02:38:48.969Z,9.38
2022-08-08T02:42:04.152Z,10.02
2022-08-08T02:45:09.631Z,9.52
2022-08-08T02:48:17.162Z,9.88
2022-08-08T02:51:46.426Z,10.07
2022-08-08T02:54:54.351Z,9.63
2022-08-08T02:58:10.447Z,10.00
2022-08-08T03:01:15.351Z,10.48
2022-08-08T03:05:04.547Z,11.07
2022-08-08T03:07:57.951Z,10.65
2022-08-08T03:10:54.245Z,10.20
2022-08-08T03:16:00.295Z,11.25
2022-08-08T03:16:55.143Z,13.50
2022-08-08T03:20:04.576Z,19.98
2022-08-08T03:22:46.567Z,16.70
2022-08-08T03:25:18.660Z,13.35
2022-08-08T03:27:56.432Z,11.68
2022-08-08T03:30:25.776Z,13.95
2022-08-08T03:33:55.355Z,13.65
2022-08-08T03:36:00.985Z,13.20
2022-08-08T03:38:56.393Z,11.70
2022-08-08T03:42:11.392Z,10.95
2022-08-08T03:44:10.571Z,10.48
2022-08-08T03:46:50.593Z,11.57
2022-08-08T03:49:58.928Z,11.07
2022-08-08T03:52:12.808Z,10.38
2022-08-08T03:55:01.966Z,10.43
2022-08-08T03:58:34.445Z,9.98
2022-08-08T04:00:22.233Z,11.10
2022-08-08T04:03:00.958Z,11.50
2022-08-08T04:05:30.974Z,10.57
2022-08-08T04:08:01.414Z,11.18
2022-08-08T04:10:32.797Z,11.02
2022-08-08T04:13:03.723Z,10.82
2022-08-08T04:16:04.142Z,11.13
2022-08-08T04:18:41.925Z,11.32
2022-08-08T04:21:13.555Z,11.43
2022-08-08T04:24:11.666Z,10.65
2022-08-08T04:26:56.858Z,10.45
2022-08-08T04:29:26.061Z,10.38
2022-08-08T04:31:59.292Z,11.30
2022-08-08T04:34:32.003Z,10.68
2022-08-08T04:37:03.904Z,9.90
2022-08-08T04:40:03.959Z,10.00
2022-08-08T04:42:22.030Z,9.80
2022-08-08T04:44:52.796Z,10.00
2022-08-08T04:47:21.084Z,8.88
2022-08-08T04:50:01.638Z,9.50
2022-08-08T04:52:33.804Z,9.35
2022-08-08T04:55:02.580Z,9.23
2022-08-08T04:57:34.517Z,8.85
2022-08-08T05:00:02.866Z,9.32
2022-08-08T05:02:31.689Z,8.70
2022-08-08T05:05:00.687Z,8.63
2022-08-08T05:07:37.810Z,9.23
2022-08-08T05:10:12.940Z,8.70
2022-08-08T05:13:00.292Z,8.07
2022-08-08T05:16:48.355Z,8.13
2022-08-08T05:18:18.736Z,9.23
2022-08-08T05:20:52.117Z,7.97
2022-08-08T05:23:21.704Z,8.55
2022-08-08T05:25:50.136Z,9.13
2022-08-08T05:28:55.837Z,8.50
2022-08-08T05:31:08.813Z,9.40
2022-08-08T05:33:56.213Z,8.90
2022-08-08T05:36:27.947Z,8.57
2022-08-08T05:38:59.406Z,8.50
2022-08-08T05:41:27.883Z,8.68
2022-08-08T05:44:13.077Z,8.43
2022-08-08T05:46:43.100Z,7.75
2022-08-08T05:49:17.664Z,8.20
2022-08-08T05:51:49.653Z,7.78
2022-08-08T05:54:28.803Z,8.10
2022-08-08T05:57:59.519Z,7.07
2022-08-08T06:00:23.373Z,7.80
2022-08-08T06:03:17.717Z,8.07
2022-08-08T06:05:56.583Z,8.10
2022-08-08T06:08:34.957Z,8.02
2022-08-08T06:11:05.049Z,7.82
2022-08-08T06:13:36.080Z,7.70
2022-08-08T06:16:16.783Z,7.43
2022-08-08T06:18:50.225Z,7.60
2022-08-08T06:21:32.541Z,7.88
2022-08-08T06:24:22.884Z,7.40
2022-08-08T06:27:04.246Z,8.27
2022-08-08T06:29:49.497Z,7.75
2022-08-08T06:32:32.838Z,6.68
2022-08-08T06:36:01.053Z,6.80
2022-08-08T06:37:59.274Z,6.18
2022-08-08T06:40:32.156Z,5.72
2022-08-08T06:43:05.701Z,6.53
2022-08-08T06:45:36.516Z,6.65
2022-08-08T06:48:08.606Z,6.82
2022-08-08T06:50:39.533Z,6.43
2022-08-08T06:53:14.105Z,5.97
2022-08-08T06:56:01.920Z,6.05
2022-08-08T06:58:33.245Z,6.45
2022-08-08T07:01:52.362Z,5.75
2022-08-08T07:04:40.188Z,6.80
2022-08-08T07:06:52.525Z,6.22
2022-08-08T07:09:22.087Z,5.97
2022-08-08T07:11:59.198Z,6.50
2022-08-08T07:14:35.932Z,6.90
2022-08-08T07:17:09.588Z,6.47
2022-08-08T07:19:59.711Z,6.80
2022-08-08T07:22:39.603Z,6.57
2022-08-08T07:25:11.042Z,6.78
2022-08-08T07:28:02.231Z,6.35
2022-08-08T07:30:36.141Z,6.25
2022-08-08T07:33:05.646Z,5.57
2022-08-08T07:35:40.544Z,5.55
2022-08-08T07:38:20.643Z,6.22
2022-08-08T07:40:50.782Z,5.00
2022-08-08T07:43:23.193Z,4.82
2022-08-08T07:46:23.503Z,4.90
2022-08-08T07:48:53.712Z,5.15
2022-08-08T07:51:44.632Z,4.38
2022-08-08T07:54:27.050Z,4.35
2022-08-08T07:57:04.301Z,5.60
2022-08-08T07:59:48.998Z,6.22
2022-08-08T08:02:33.553Z,5.72
2022-08-08T08:05:15.135Z,4.05
2022-08-08T08:07:53.049Z,8.95
2022-08-08T08:10:30.176Z,5.40
2022-08-08T08:13:25.790Z,5.25
2022-08-08T08:16:11.468Z,4.07
2022-08-08T08:18:55.712Z,3.67
2022-08-08T08:21:44.324Z,4.20
2022-08-08T08:24:19.004Z,3.80
2022-08-08T08:26:52.691Z,3.45
2022-08-08T08:29:24.368Z,3.85
2022-08-08T08:31:58.396Z,2.70
2022-08-08T08:34:32.266Z,3.10
2022-08-08T08:37:08.169Z,3.40
2022-08-08T08:39:59.851Z,3.30
2022-08-08T08:42:29.392Z,3.45
2022-08-08T08:45:16.466Z,3.60
2022-08-08T08:47:54.713Z,4.30
2022-08-08T08:50:33.799Z,3.35
2022-08-08T08:53:28.370Z,3.00
2022-08-08T08:55:56.041Z,2.88
2022-08-08T08:58:34.007Z,2.95
2022-08-08T09:01:08.290Z,2.92
2022-08-08T09:03:46.831Z,2.80
2022-08-08T09:06:28.252Z,3.28
2022-08-08T09:09:04.410Z,8.77
2022-08-08T09:11:47.776Z,3.40
2022-08-08T09:14:26.450Z,9.85
2022-08-08T09:16:57.057Z,3.65
2022-08-08T09:21:56.667Z,4.65
2022-08-08T09:22:25.991Z,3.80
2022-08-08T09:24:58.480Z,3.65
2022-08-08T09:27:56.495Z,2.90
2022-08-08T09:30:20.168Z,3.05
2022-08-08T09:33:13.147Z,3.03
2022-08-08T09:35:49.955Z,3.55
2022-08-08T09:38:33.622Z,2.88
2022-08-08T09:41:06.775Z,3.00
2022-08-08T09:44:06.523Z,3.42
2022-08-08T09:46:38.724Z,3.10
2022-08-08T09:49:40.929Z,2.75
2022-08-08T09:52:06.553Z,3.15
2022-08-08T09:54:44.149Z,2.92
2022-08-08T09:57:19.012Z,3.38
2022-08-08T10:00:28.887Z,3.10
2022-08-08T10:02:45.117Z,4.90
2022-08-08T10:05:22.694Z,8.70
2022-08-08T10:07:59.730Z,3.80
2022-08-08T10:10:31.821Z,3.63
2022-08-08T10:13:13.959Z,3.15
2022-08-08T10:16:00.240Z,3.17
2022-08-08T10:18:30.855Z,3.03
2022-08-08T10:21:22.449Z,3.05
2022-08-08T10:23:58.314Z,2.35
2022-08-08T10:26:58.564Z,2.55
2022-08-08T10:29:28.229Z,3.00
2022-08-08T10:32:27.489Z,3.10
2022-08-08T10:35:01.377Z,3.17
2022-08-08T10:37:31.822Z,3.40
2022-08-08T10:40:16.883Z,2.67
2022-08-08T10:42:46.263Z,2.97
2022-08-08T10:45:16.800Z,2.80
2022-08-08T10:47:55.596Z,2.85
2022-08-08T10:50:33.412Z,2.53
2022-08-08T10:53:07.744Z,2.20
2022-08-08T10:55:45.695Z,3.00
2022-08-08T10:58:15.590Z,2.85
2022-08-08T11:00:48.557Z,2.50
2022-08-08T11:03:36.315Z,3.50
2022-08-08T11:06:12.603Z,2.78
2022-08-08T11:08:46.262Z,2.58
2022-08-08T11:11:59.994Z,2.35
2022-08-08T11:14:12.430Z,2.45
2022-08-08T11:16:47.137Z,2.28
2022-08-08T11:19:18.158Z,2.60
2022-08-08T11:21:54.270Z,2.20
2022-08-08T11:24:26.850Z,2.38
2022-08-08T11:26:59.180Z,1.92
2022-08-08T11:29:50.730Z,2.50
2022-08-08T11:32:22.252Z,2.58
2022-08-08T11:35:23.515Z,2.08
2022-08-08T11:38:35.828Z,2.17
2022-08-08T11:40:46.399Z,1.88
2022-08-08T11:43:21.691Z,2.20
2022-08-08T11:46:09.949Z,2.53
2022-08-08T11:48:44.966Z,2.22
2022-08-08T11:51:38.113Z,2.53
2022-08-08T11:54:09.707Z,2.70
2022-08-08T11:56:55.958Z,2.53
2022-08-08T11:59:57.667Z,2.33
2022-08-08T12:02:32.222Z,2.63
2022-08-08T12:05:06.793Z,2.40
2022-08-08T12:07:49.719Z,2.63
2022-08-08T12:10:21.871Z,2.85
2022-08-08T12:12:54.668Z,3.28
2022-08-08T12:15:28.453Z,2.95
2022-08-08T12:17:56.728Z,2.38
2022-08-08T12:20:25.816Z,2.38
2022-08-08T12:22:57.110Z,2.20
2022-08-08T12:25:31.177Z,2.65
2022-08-08T12:28:15.503Z,2.08
2022-08-08T12:30:48.202Z,2.00
2022-08-08T12:33:20.229Z,1.77
2022-08-08T12:35:52.934Z,2.50
2022-08-08T12:38:30.446Z,2.45
2022-08-08T12:41:05.766Z,2.20
2022-08-08T12:44:00.533Z,2.30
2022-08-08T12:46:29.726Z,2.10
2022-08-08T12:49:21.971Z,2.55
2022-08-08T12:51:59.221Z,2.40
2022-08-08T12:54:33.263Z,2.35
2022-08-08T12:57:17.163Z,2.17
2022-08-08T13:00:05.365Z,2.42
2022-08-08T13:02:51.811Z,2.10
2022-08-08T13:05:27.033Z,2.30
2022-08-08T13:08:20.600Z,2.97
2022-08-08T13:10:56.912Z,2.28
2022-08-08T13:13:34.744Z,2.63
2022-08-08T13:16:18.917Z,2.53
2022-08-08T13:18:58.299Z,2.45
2022-08-08T13:21:48.729Z,2.25
2022-08-08T13:24:39.519Z,2.88
2022-08-08T13:27:13.670Z,2.22
2022-08-08T13:29:51.289Z,2.58
2022-08-08T13:32:23.558Z,2.30
2022-08-08T13:34:56.583Z,2.33
2022-08-08T13:37:27.874Z,2.00
2022-08-08T13:40:27.215Z,2.17
2022-08-08T13:42:58.377Z,2.10
2022-08-08T13:45:27.093Z,2.20
2022-08-08T13:47:59.185Z,2.20
2022-08-08T13:50:36.532Z,2.00
2022-08-08T13:53:24.366Z,2.08
2022-08-08T13:56:02.033Z,2.17
2022-08-08T13:58:33.275Z,2.30
2022-08-08T14:01:13.726Z,2.15
2022-08-08T14:03:54.996Z,1.90
2022-08-08T14:06:32.913Z,2.05
2022-08-08T14:09:25.441Z,2.47
2022-08-08T14:11:51.687Z,1.70
2022-08-08T14:14:26.280Z,2.20
2022-08-08T14:16:57.288Z,2.05
2022-08-08T14:19:57.676Z,2.60
2022-08-08T14:22:24.337Z,2.47
2022-08-08T14:24:59.778Z,2.40
2022-08-08T14:27:34.044Z,2.50
2022-08-08T14:30:18.475Z,2.30
2022-08-08T14:32:52.844Z,2.10
2022-08-08T14:35:23.321Z,2.25
2022-08-08T14:38:00.347Z,2.13
2022-08-08T14:40:32.751Z,2.00
2022-08-08T14:43:01.819Z,2.10
2022-08-08T14:46:03.351Z,3.20
2022-08-08T14:48:41.841Z,3.60
2022-08-08T14:51:23.524Z,6.82
2022-08-08T14:53:55.193Z,2.97
2022-08-08T14:56:25.482Z,2.78
2022-08-08T14:58:54.805Z,3.30
2022-08-08T15:01:37.222Z,2.60
2022-08-08T15:04:10.493Z,2.55
2022-08-08T15:06:38.933Z,2.80
2022-08-08T15:09:07.813Z,2.58
2022-08-08T15:11:43.326Z,2.70
2022-08-08T15:14:15.101Z,3.13
2022-08-08T15:16:45.274Z,3.33
2022-08-08T15:19:15.600Z,2.63
2022-08-08T15:21:44.811Z,2.38
2022-08-08T15:24:16.193Z,2.92
2022-08-08T15:26:52.247Z,4.07
2022-08-08T15:29:22.631Z,3.13
2022-08-08T15:32:18.062Z,3.45
2022-08-08T15:34:42.553Z,2.90
2022-08-08T15:37:10.973Z,2.63
2022-08-08T15:39:41.428Z,2.60
2022-08-08T15:42:13.086Z,2.45
2022-08-08T15:44:43.101Z,2.40
2022-08-08T15:47:15.753Z,2.55
2022-08-08T15:49:48.926Z,2.67
2022-08-08T15:52:40.360Z,2.70
2022-08-08T15:55:11.549Z,2.50
2022-08-08T15:57:40.806Z,2.38
2022-08-08T16:00:27.238Z,2.60
2022-08-08T16:02:59.345Z,2.60
2022-08-08T16:05:35.884Z,2.58
2022-08-08T16:08:20.207Z,2.50
2022-08-08T16:13:03.838Z,2.72
2022-08-08T16:13:45.166Z,2.60
2022-08-08T16:16:17.882Z,2.60
2022-08-08T16:18:53.122Z,2.72
2022-08-08T16:21:29.002Z,3.03
2022-08-08T16:23:57.690Z,2.72
2022-08-08T16:26:33.942Z,3.13
2022-08-08T16:29:09.242Z,2.88
2022-08-08T16:31:40.923Z,2.53
2022-08-08T16:34:11.263Z,2.65
2022-08-08T16:36:49.498Z,3.33
2022-08-08T16:40:01.399Z,3.13
2022-08-08T16:42:18.334Z,3.78
2022-08-08T16:44:54.877Z,4.13
2022-08-08T16:47:39.971Z,3.30
2022-08-08T16:50:15.318Z,3.47
2022-08-08T16:55:02.587Z,3.22
2022-08-08T16:55:53.637Z,2.80
2022-08-08T16:58:25.591Z,3.17
2022-08-08T17:00:58.872Z,3.20
2022-08-08T17:03:58.342Z,3.15
2022-08-08T17:06:37.374Z,3.13
2022-08-08T17:09:06.029Z,2.90
2022-08-08T17:11:48.042Z,2.63
2022-08-08T17:14:18.723Z,2.70
2022-08-08T17:16:51.720Z,2.42
2022-08-08T17:19:26.415Z,3.45
2022-08-08T17:21:56.779Z,3.28
2022-08-08T17:24:29.888Z,3.35
2022-08-08T17:26:59.454Z,3.17
2022-08-08T17:29:27.803Z,3.20
2022-08-08T17:31:57.379Z,3.55
2022-08-08T17:34:53.569Z,3.85
2022-08-08T17:37:16.300Z,3.08
2022-08-08T17:40:10.946Z,3.90
2022-08-08T17:42:37.010Z,3.60
2022-08-08T17:45:06.716Z,4.00
2022-08-08T17:47:42.845Z,3.22
2022-08-08T17:50:18.938Z,3.65
2022-08-08T17:52:48.481Z,3.22
2022-08-08T17:56:03.942Z,3.60
2022-08-08T17:58:05.714Z,4.05
2022-08-08T18:00:41.341Z,4.35
2022-08-08T18:03:13.176Z,4.22
2022-08-08T18:05:48.719Z,5.03
2022-08-08T18:08:25.131Z,5.35
2022-08-08T18:11:08.391Z,5.05
2022-08-08T18:13:41.364Z,3.88
2022-08-08T18:16:10.311Z,4.95
2022-08-08T18:18:42.656Z,4.53
2022-08-08T18:21:24.863Z,3.70
2022-08-08T18:24:03.387Z,3.80
2022-08-08T18:26:31.566Z,3.60
2022-08-08T18:29:01.851Z,3.97
2022-08-08T18:31:30.151Z,3.80
2022-08-08T18:34:12.180Z,3.30
2022-08-08T18:36:47.793Z,3.60
2022-08-08T18:39:28.348Z,3.78
2022-08-08T18:41:59.940Z,4.50
2022-08-08T18:44:32.986Z,4.05
2022-08-08T18:47:05.112Z,3.53
2022-08-08T18:49:57.767Z,3.90
2022-08-08T18:52:23.352Z,3.72
2022-08-08T18:55:00.699Z,3.97
2022-08-08T18:57:41.631Z,3.60
2022-08-08T19:00:16.525Z,3.70
2022-08-08T19:02:56.188Z,3.72
2022-08-08T19:05:34.343Z,3.50
2022-08-08T19:08:10.348Z,7.45
2022-08-08T19:10:55.728Z,4.05
2022-08-08T19:13:25.223Z,4.03
2022-08-08T19:15:55.945Z,3.72
2022-08-08T19:18:32.522Z,4.40
2022-08-08T19:21:29.602Z,4.13
2022-08-08T19:23:59.664Z,4.30
2022-08-08T19:26:31.214Z,4.18
2022-08-08T19:29:00.171Z,4.22
2022-08-08T19:31:31.258Z,4.82
2022-08-08T19:34:35.491Z,4.97
2022-08-08T19:36:53.549Z,4.57
2022-08-08T19:39:23.786Z,5.20
2022-08-08T19:41:53.289Z,5.72
2022-08-08T19:44:43.223Z,3.88
2022-08-08T19:47:09.889Z,3.85
2022-08-08T19:49:43.469Z,4.18
2022-08-08T19:52:34.432Z,4.00
2022-08-08T19:55:05.089Z,4.78
2022-08-08T19:57:37.775Z,4.65
2022-08-08T20:00:11.546Z,4.85
2022-08-08T20:02:57.045Z,4.47
2022-08-08T20:06:15.137Z,4.50
2022-08-08T20:08:29.193Z,5.47
2022-08-08T20:11:00.050Z,4.68
2022-08-08T20:14:33.568Z,4.38
2022-08-08T20:16:19.621Z,3.47
2022-08-08T20:18:52.643Z,4.03
2022-08-08T20:21:25.387Z,3.88
2022-08-08T20:23:57.634Z,4.00
2022-08-08T20:26:33.275Z,4.22
2022-08-08T20:29:04.307Z,4.47
2022-08-08T20:32:02.919Z,4.50
2022-08-08T20:34:30.573Z,4.40
2022-08-08T20:37:00.932Z,3.92
2022-08-08T20:39:39.173Z,4.55
2022-08-08T20:42:20.412Z,4.82
2022-08-08T20:44:58.685Z,4.30
2022-08-08T20:47:26.911Z,4.25
2022-08-08T20:50:05.570Z,3.92
2022-08-08T20:52:33.758Z,3.70
2022-08-08T20:55:02.197Z,4.97
2022-08-08T20:57:47.741Z,4.03
2022-08-08T21:00:21.007Z,4.07
2022-08-08T21:02:52.825Z,3.35
2022-08-08T21:05:21.630Z,4.30
2022-08-08T21:08:07.806Z,3.92
2022-08-08T21:10:41.189Z,3.38
2022-08-08T21:13:09.978Z,4.10
2022-08-08T21:16:06.319Z,4.35
2022-08-08T21:18:28.078Z,3.88
2022-08-08T21:20:56.603Z,4.45
2022-08-08T21:23:58.570Z,4.88
2022-08-08T21:26:13.509Z,4.13
2022-08-08T21:28:55.834Z,3.95
2022-08-08T21:31:58.516Z,4.45
2022-08-08T21:34:18.971Z,4.07
2022-08-08T21:36:49.302Z,4.30
2022-08-08T21:39:17.903Z,4.90
2022-08-08T21:41:51.166Z,4.57
2022-08-08T21:44:21.893Z,4.47
2022-08-08T21:48:04.936Z,4.78
2022-08-08T21:49:39.553Z,5.10
2022-08-08T21:54:34.185Z,4.55
2022-08-08T21:55:04.202Z,5.03
2022-08-08T21:57:42.950Z,5.30
2022-08-08T22:00:26.003Z,4.80
2022-08-08T22:02:55.860Z,4.57
2022-08-08T22:05:23.998Z,4.65
2022-08-08T22:07:52.063Z,4.75
2022-08-08T22:10:31.953Z,4.57
2022-08-08T22:13:18.659Z,5.07
2022-08-08T22:15:59.565Z,5.22
2022-08-08T22:18:33.847Z,4.50
2022-08-08T22:21:10.757Z,4.28
2022-08-08T22:23:49.460Z,4.72
2022-08-08T22:26:28.754Z,4.85
2022-08-08T22:29:14.893Z,4.50
2022-08-08T22:31:58.666Z,4.53
2022-08-08T22:34:33.020Z,4.65
2022-08-08T22:37:14.879Z,4.90
2022-08-08T22:40:01.136Z,4.82
2022-08-08T22:42:34.319Z,4.97
2022-08-08T22:45:03.415Z,5.18
2022-08-08T22:47:38.401Z,5.28
2022-08-08T22:50:26.211Z,4.72
2022-08-08T22:53:22.477Z,4.63
2022-08-08T22:55:59.265Z,4.70
2022-08-08T22:58:31.159Z,4.53
2022-08-08T23:01:00.994Z,4.80
2022-08-08T23:03:52.936Z,5.03
2022-08-08T23:06:19.302Z,4.53
2022-08-08T23:08:55.611Z,4.50
2022-08-08T23:11:31.114Z,4.63
2022-08-08T23:14:17.487Z,4.63
2022-08-08T23:16:57.609Z,4.82
2022-08-08T23:19:31.034Z,4.22
2022-08-08T23:22:04.225Z,4.63
2022-08-08T23:24:36.122Z,4.03
2022-08-08T23:27:06.392Z,4.13
2022-08-08T23:29:34.558Z,4.40
2022-08-08T23:32:04.755Z,4.25
2022-08-08T23:34:34.263Z,3.47
2022-08-08T23:37:04.699Z,4.20
2022-08-08T23:39:42.114Z,4.10
2022-08-08T23:42:21.389Z,3.88
2022-08-08T23:44:50.019Z,4.22
2022-08-08T23:48:59.777Z,3.90
2022-08-08T23:50:29.817Z,4.07
2022-08-08T23:53:03.501Z,4.32
2022-08-08T23:55:33.723Z,4.38
2022-08-08T23:58:32.147Z,4.75
